Time;durP1;ratioP1;P1;durP2;ratioP2;P2;SDS_P1;SDS_P2;PMS_P1;PMS_P2;Temp;Humidity;BMP_temperature;BMP_pressure;BME280_temperature;BME280_humidity;BME280_pressure;Samples;Min_cycle;Max_cycle;Signal;HPM_P1;HPM_P2
2022/07/14 00:00:43;;;;;;;3.72;1.73;;;;;;;23.00;100.00;96658.72;5088382;28;20090;-47
2022/07/14 00:03:13;;;;;;;5.45;1.77;;;;;;;23.06;100.00;96646.28;5087482;28;20074;-48
2022/07/14 00:05:41;;;;;;;4.25;1.90;;;;;;;23.06;100.00;96639.03;5088561;28;20583;-44
2022/07/14 00:08:10;;;;;;;3.47;1.80;;;;;;;23.10;100.00;96650.19;5085842;28;20068;-47
2022/07/14 00:10:38;;;;;;;5.07;2.20;;;;;;;22.89;100.00;96645.97;5084638;28;20076;-51
2022/07/14 00:13:06;;;;;;;7.13;2.00;;;;;;;22.93;100.00;96645.31;5086118;28;20072;-48
2022/07/14 00:15:35;;;;;;;3.60;1.75;;;;;;;22.86;100.00;96646.41;5084927;28;20106;-48
2022/07/14 00:18:03;;;;;;;2.20;1.90;;;;;;;22.77;100.00;96645.00;5087153;28;20553;-44
2022/07/14 00:20:33;;;;;;;4.03;1.92;;;;;;;22.83;100.00;96652.19;5075575;28;20083;-48
2022/07/14 00:23:01;;;;;;;4.25;1.80;;;;;;;22.54;100.00;96656.28;5087418;28;20072;-44
2022/07/14 00:25:30;;;;;;;4.80;1.88;;;;;;;22.76;100.00;96652.25;5087203;28;20083;-45
2022/07/14 00:27:58;;;;;;;3.67;2.03;;;;;;;22.87;100.00;96650.72;5089076;28;20083;-44
2022/07/14 00:30:27;;;;;;;3.22;1.98;;;;;;;22.73;100.00;96641.91;5082643;28;20080;-47
2022/07/14 00:32:55;;;;;;;4.18;2.10;;;;;;;22.65;100.00;96634.94;5085554;28;20082;-52
2022/07/14 00:35:23;;;;;;;2.85;1.88;;;;;;;22.74;100.00;96651.63;5088796;28;20084;-52
2022/07/14 00:37:53;;;;;;;5.32;2.22;;;;;;;22.71;100.00;96631.41;5086585;28;20525;-51
2022/07/14 00:40:22;;;;;;;4.75;1.95;;;;;;;22.60;100.00;96628.56;5085341;28;20080;-52
2022/07/14 00:42:51;;;;;;;2.10;1.60;;;;;;;22.50;100.00;96618.28;5074909;28;20083;-50
2022/07/14 00:45:21;;;;;;;4.55;1.98;;;;;;;22.46;100.00;96623.25;5084879;28;20079;-47
2022/07/14 00:47:50;;;;;;;3.42;1.90;;;;;;;22.30;100.00;96623.78;5087210;28;20087;-47
2022/07/14 00:50:19;;;;;;;4.97;2.20;;;;;;;22.36;100.00;96628.28;5088014;28;20086;-50
2022/07/14 00:52:49;;;;;;;5.00;2.28;;;;;;;22.28;100.00;96629.34;5084027;28;22189;-49
2022/07/14 00:55:19;;;;;;;2.38;2.00;;;;;;;22.32;100.00;96624.38;5086848;28;20099;-46
2022/07/14 00:57:48;;;;;;;4.78;2.00;;;;;;;22.33;100.00;96622.50;5076524;28;20075;-49
2022/07/14 01:00:17;;;;;;;2.85;2.08;;;;;;;22.37;100.00;96632.63;5088485;28;20632;-47
2022/07/14 01:02:46;;;;;;;6.73;2.47;;;;;;;22.25;100.00;96631.66;5085712;28;20078;-53
2022/07/14 01:05:15;;;;;;;6.57;2.47;;;;;;;21.61;100.00;96651.22;5085003;28;20079;-49
2022/07/14 01:07:44;;;;;;;6.03;2.30;;;;;;;21.75;100.00;96648.34;5080610;28;20079;-47
2022/07/14 01:10:12;;;;;;;6.65;2.47;;;;;;;21.87;100.00;96637.75;5088869;28;20095;-48
2022/07/14 01:12:45;;;;;;;6.18;2.33;;;;;;;21.88;100.00;96633.19;5088221;28;20080;-44
2022/07/14 01:15:14;;;;;;;3.38;2.13;;;;;;;22.00;100.00;96621.59;5081495;28;20095;-48
2022/07/14 01:17:43;;;;;;;4.00;2.03;;;;;;;21.93;100.00;96630.72;5087504;28;20087;-44
2022/07/14 01:20:12;;;;;;;3.85;2.00;;;;;;;21.90;100.00;96634.66;5077839;28;20226;-46
2022/07/14 01:22:42;;;;;;;6.22;2.28;;;;;;;21.94;100.00;96637.72;5081104;28;20537;-44
2022/07/14 01:25:12;;;;;;;3.58;2.30;;;;;;;21.97;100.00;96642.69;5088309;28;20076;-44
2022/07/14 01:27:40;;;;;;;6.18;2.47;;;;;;;22.17;100.00;96632.72;5086175;28;20086;-43
2022/07/14 01:30:10;;;;;;;4.75;2.17;;;;;;;22.07;100.00;96635.00;5089269;28;20530;-45
2022/07/14 01:32:39;;;;;;;5.07;2.50;;;;;;;22.08;100.00;96631.28;5085818;28;20080;-47
2022/07/14 01:35:08;;;;;;;3.65;2.08;;;;;;;22.11;100.00;96633.53;5099719;28;20102;-47
2022/07/14 01:37:36;;;;;;;4.38;2.20;;;;;;;22.25;100.00;96621.72;5093174;28;20607;-43
2022/07/14 01:40:07;;;;;;;3.45;2.00;;;;;;;22.25;100.00;96615.53;5082856;28;20087;-49
2022/07/14 01:42:36;;;;;;;3.15;2.20;;;;;;;22.23;100.00;96607.69;5087042;28;20095;-44
2022/07/14 01:45:06;;;;;;;2.67;1.80;;;;;;;22.43;100.00;96610.25;5090625;28;20095;-48
2022/07/14 01:47:34;;;;;;;2.50;2.05;;;;;;;22.39;100.00;96617.09;5090295;28;20087;-42
2022/07/14 01:50:03;;;;;;;2.95;2.00;;;;;;;22.45;100.00;96602.81;5089478;28;20095;-43
2022/07/14 01:52:31;;;;;;;3.10;1.92;;;;;;;22.54;100.00;96607.91;5089625;28;20126;-48
2022/07/14 01:55:00;;;;;;;3.65;1.83;;;;;;;22.46;100.00;96612.50;5087143;28;20088;-46
2022/07/14 01:57:29;;;;;;;2.70;1.95;;;;;;;22.27;100.00;96608.91;5085425;28;20487;-44
2022/07/14 01:59:58;;;;;;;6.88;2.00;;;;;;;22.36;100.00;96605.97;5089322;28;20475;-48
2022/07/14 02:02:26;;;;;;;2.67;1.58;;;;;;;22.39;100.00;96611.72;5089020;28;20113;-44
2022/07/14 02:04:55;;;;;;;12.27;2.08;;;;;;;22.39;100.00;96602.84;5079912;28;20545;-49
2022/07/14 02:07:23;;;;;;;2.70;2.00;;;;;;;22.20;100.00;96605.44;5077400;28;20451;-52
2022/07/14 02:12:39;;;;;;;3.25;1.77;;;;;;;22.20;100.00;96612.69;5079435;28;20080;-43
2022/07/14 02:15:08;;;;;;;3.33;1.58;;;;;;;22.20;100.00;96610.81;5070740;28;20514;-43
2022/07/14 02:17:37;;;;;;;2.37;1.63;;;;;;;21.88;100.00;96611.72;5079516;28;20071;-47
2022/07/14 02:20:08;;;;;;;2.97;1.80;;;;;;;21.96;100.00;96611.50;5074057;28;20532;-46
2022/07/14 02:22:37;;;;;;;5.35;1.80;;;;;;;22.01;100.00;96611.69;5084779;28;20084;-51
2022/07/14 02:25:07;;;;;;;5.43;1.70;;;;;;;22.10;100.00;96620.34;5081411;28;20513;-50
2022/07/14 02:27:36;;;;;;;2.40;1.92;;;;;;;22.01;100.00;96612.50;5080031;28;20522;-49
2022/07/14 02:30:07;;;;;;;2.97;1.90;;;;;;;21.97;100.00;96615.84;5081732;28;20088;-48
2022/07/14 02:32:35;;;;;;;3.50;1.90;;;;;;;21.93;100.00;96618.13;5075738;28;20095;-54
2022/07/14 02:35:04;;;;;;;2.95;1.83;;;;;;;21.89;100.00;96626.81;5075182;28;20072;-52
2022/07/14 02:37:32;;;;;;;3.83;1.95;;;;;;;21.82;100.00;96634.88;5079760;28;20559;-47
2022/07/14 02:40:01;;;;;;;4.15;2.03;;;;;;;21.69;100.00;96627.69;5080188;28;20080;-47
2022/07/14 02:42:29;;;;;;;3.85;1.75;;;;;;;21.33;100.00;96622.75;5083500;28;20090;-48
2022/07/14 02:44:58;;;;;;;3.85;1.73;;;;;;;21.59;100.00;96631.84;5084264;28;20072;-46
2022/07/14 02:47:27;;;;;;;2.97;1.80;;;;;;;21.22;100.00;96631.44;5078316;28;20460;-48
2022/07/14 02:49:56;;;;;;;3.67;1.80;;;;;;;21.28;100.00;96630.63;5078723;28;20078;-44
2022/07/14 02:52:24;;;;;;;3.33;1.70;;;;;;;21.36;100.00;96632.28;5076544;28;20086;-46
2022/07/14 02:54:52;;;;;;;3.15;1.70;;;;;;;21.41;100.00;96625.28;5078189;28;20084;-52
2022/07/14 02:57:21;;;;;;;2.42;1.67;;;;;;;21.34;100.00;96624.47;5079774;28;20458;-47
2022/07/14 02:59:50;;;;;;;6.43;2.15;;;;;;;21.50;100.00;96613.25;5071769;28;20464;-51
2022/07/14 03:02:19;;;;;;;2.60;1.70;;;;;;;21.51;100.00;96622.16;5080243;28;20475;-45
2022/07/14 03:04:49;;;;;;;3.05;1.70;;;;;;;21.51;100.00;96622.16;5077496;28;20466;-46
2022/07/14 03:07:17;;;;;;;3.03;1.83;;;;;;;21.32;100.00;96627.31;5078705;28;20125;-50
2022/07/14 03:09:47;;;;;;;2.05;1.67;;;;;;;21.33;100.00;96612.03;5075299;28;20094;-44
2022/07/14 03:12:15;;;;;;;3.08;1.80;;;;;;;21.27;100.00;96619.06;5076134;28;20472;-49
2022/07/14 03:14:44;;;;;;;5.15;1.80;;;;;;;21.19;100.00;96613.09;5078692;28;20110;-48
2022/07/14 03:17:14;;;;;;;3.55;1.80;;;;;;;21.17;100.00;96610.63;5070859;28;20601;-51
2022/07/14 03:19:43;;;;;;;9.27;2.10;;;;;;;21.10;100.00;96607.94;5076358;28;20079;-44
2022/07/14 03:22:13;;;;;;;2.22;1.92;;;;;;;21.04;100.00;96605.25;5077672;28;20762;-51
2022/07/14 03:24:41;;;;;;;6.43;1.92;;;;;;;21.11;100.00;96611.44;5076126;28;22183;-43
2022/07/14 03:27:09;;;;;;;3.38;1.98;;;;;;;21.15;100.00;96611.84;5079073;28;20736;-46
2022/07/14 03:29:40;;;;;;;3.88;1.90;;;;;;;21.08;100.00;96617.22;5073758;28;20087;-46
2022/07/14 03:32:08;;;;;;;5.15;1.80;;;;;;;;;;5082412;28;20087;-50
2022/07/14 03:34:37;;;;;;;4.38;2.00;;;;;;;21.16;100.00;96627.72;5079310;28;20549;-49
2022/07/14 03:37:05;;;;;;;2.92;1.60;;;;;;;20.95;100.00;96626.06;5076908;28;20080;-47
2022/07/14 03:39:35;;;;;;;4.32;1.83;;;;;;;21.26;100.00;96630.81;5078728;28;20114;-46
2022/07/14 03:42:03;;;;;;;5.38;1.90;;;;;;;21.23;100.00;96627.72;5081143;28;20080;-50
2022/07/14 03:44:32;;;;;;;4.57;2.00;;;;;;;21.24;100.00;96643.63;5079600;28;20095;-50
2022/07/14 03:47:00;;;;;;;3.85;1.90;;;;;;;21.26;100.00;96633.50;5079101;28;20099;-47
2022/07/14 03:49:29;;;;;;;2.63;1.90;;;;;;;21.43;100.00;96633.09;5081376;28;20094;-44
2022/07/14 03:51:57;;;;;;;2.90;1.73;;;;;;;21.22;100.00;96637.63;5076870;28;20083;-48
2022/07/14 03:54:26;;;;;;;3.55;1.70;;;;;;;21.17;100.00;96636.63;5080598;28;20076;-49
2022/07/14 03:56:55;;;;;;;4.40;1.80;;;;;;;21.27;100.00;96632.47;5074626;28;20095;-47
2022/07/14 03:59:24;;;;;;;3.80;1.90;;;;;;;21.25;100.00;96633.72;5080205;28;20124;-49
2022/07/14 04:01:52;;;;;;;5.32;1.80;;;;;;;21.21;100.00;96619.91;5078611;28;20653;-50
2022/07/14 04:04:20;;;;;;;2.83;2.03;;;;;;;21.34;100.00;96621.78;5078375;28;20084;-48
2022/07/14 04:06:49;;;;;;;2.63;2.15;;;;;;;22.38;100.00;96610.09;5080553;28;20080;-45
2022/07/14 04:09:17;;;;;;;3.20;2.03;;;;;;;21.90;100.00;96623.91;5075459;28;20086;-47
2022/07/14 04:11:45;;;;;;;2.70;1.80;;;;;;;21.82;100.00;96624.16;5075775;28;20076;-45
2022/07/14 04:14:15;;;;;;;3.20;1.90;;;;;;;21.60;100.00;96623.56;5071747;28;20546;-49
2022/07/14 04:16:44;;;;;;;3.83;2.08;;;;;;;21.44;100.00;96626.69;5074967;28;20083;-55
2022/07/14 04:19:12;;;;;;;13.65;2.10;;;;;;;21.44;100.00;96622.19;5073630;28;20094;-52
2022/07/14 04:21:41;;;;;;;2.53;1.90;;;;;;;21.50;100.00;96620.50;5077143;28;20084;-44
2022/07/14 04:24:09;;;;;;;5.28;1.83;;;;;;;21.53;100.00;96622.75;5084713;28;20082;-52
2022/07/14 04:26:40;;;;;;;2.55;1.92;;;;;;;21.35;100.00;96630.66;5094815;28;20098;-51
2022/07/14 04:29:08;;;;;;;3.38;2.10;;;;;;;21.19;100.00;96638.03;5085187;28;20076;-44
2022/07/14 04:31:38;;;;;;;5.95;2.00;;;;;;;21.53;100.00;96638.88;5091600;28;20067;-44
2022/07/14 04:34:07;;;;;;;2.90;2.15;;;;;;;21.53;100.00;96642.38;5091479;28;20090;-49
2022/07/14 04:36:35;;;;;;;3.92;2.03;;;;;;;21.81;100.00;96638.59;5091568;28;20051;-43
2022/07/14 04:39:06;;;;;;;2.70;1.83;;;;;;;21.89;100.00;96648.28;5090533;28;20083;-52
2022/07/14 04:41:39;;;;;;;3.05;1.80;;;;;;;21.72;100.00;96638.00;5091214;28;20083;-47
2022/07/14 04:44:08;;;;;;;5.18;1.83;;;;;;;21.69;100.00;96638.44;5090852;28;20060;-43
2022/07/14 04:46:38;;;;;;;5.35;2.28;;;;;;;21.67;100.00;96642.34;5090622;28;20076;-50
2022/07/14 04:52:04;;;;;;;2.17;1.90;;;;;;;22.09;100.00;96638.28;5091538;28;20083;-46
2022/07/14 04:54:33;;;;;;;;;;;;;;;22.67;100.00;96638.22;5085907;28;20466;-49
2022/07/14 04:57:04;;;;;;;2.72;2.22;;;;;;;23.97;100.00;96624.09;5085626;28;19972;-47
2022/07/14 04:59:33;;;;;;;3.15;2.00;;;;;;;24.73;100.00;96625.38;5090753;28;20086;-45
2022/07/14 05:02:03;;;;;;;3.45;1.95;;;;;;;24.01;100.00;96627.97;5090738;28;20071;-50
2022/07/14 05:04:31;;;;;;;3.75;2.10;;;;;;;24.63;100.00;96628.63;5086812;28;20083;-45
2022/07/14 05:07:00;;;;;;;4.93;1.90;;;;;;;24.77;100.00;96628.44;5091272;28;20099;-50
2022/07/14 05:09:32;;;;;;;3.03;2.20;;;;;;;26.06;100.00;96623.16;5090482;28;20080;-46
2022/07/14 05:12:01;;;;;;;4.15;1.90;;;;;;;26.71;100.00;96616.59;5086764;28;20068;-51
2022/07/14 05:14:30;;;;;;;2.95;1.90;;;;;;;26.64;100.00;96627.56;5090461;28;20522;-46
2022/07/14 05:16:58;;;;;;;3.35;1.80;;;;;;;26.78;100.00;96629.97;5090491;28;20099;-53
2022/07/14 05:19:46;;;;;;;5.40;2.00;;;;;;;27.06;100.00;96627.19;5098006;28;20106;-45
2022/07/14 05:22:15;;;;;;;5.80;2.40;;;;;;;28.70;83.08;96624.91;5094212;28;20095;-47
2022/07/14 05:24:43;;;;;;;3.22;1.80;;;;;;;28.41;85.61;96629.72;5089766;28;20468;-45
2022/07/14 05:27:11;;;;;;;2.83;1.50;;;;;;;26.95;100.00;96636.22;5090518;28;20068;-48
2022/07/14 05:29:40;;;;;;;2.55;1.67;;;;;;;27.07;100.00;96636.13;5090402;28;20477;-44
2022/07/14 05:32:09;;;;;;;5.25;1.80;;;;;;;28.24;94.06;96627.03;5089876;28;20534;-47
2022/07/14 05:34:41;;;;;;;4.10;1.83;;;;;;;29.43;81.22;96624.47;5089049;28;20518;-49
2022/07/14 05:37:11;;;;;;;4.60;2.13;;;;;;;30.55;61.24;96629.69;5090140;28;20086;-47
2022/07/14 05:39:40;;;;;;;4.00;1.60;;;;;;;30.47;59.66;96623.69;5081663;28;20084;-51
2022/07/14 05:42:08;;;;;;;2.65;1.50;;;;;;;29.23;69.82;96625.94;5090083;28;20090;-45
2022/07/14 05:44:36;;;;;;;4.32;1.67;;;;;;;27.31;96.48;96626.00;5089935;28;20076;-49
2022/07/14 05:47:05;;;;;;;2.88;1.63;;;;;;;27.62;100.00;96627.28;5090176;28;20113;-49
2022/07/14 05:49:35;;;;;;;2.83;1.70;;;;;;;26.59;100.00;96627.44;5089776;28;20748;-46
2022/07/14 05:52:05;;;;;;;2.65;1.65;;;;;;;27.42;100.00;96638.63;5089416;28;20083;-46
2022/07/14 05:54:35;;;;;;;2.90;1.75;;;;;;;27.76;100.00;96634.00;5088150;28;20465;-45
2022/07/14 05:57:04;;;;;;;3.72;1.80;;;;;;;28.05;100.00;96626.56;5089392;28;20522;-47
2022/07/14 05:59:32;;;;;;;5.70;2.08;;;;;;;28.26;100.00;96622.19;5089731;28;20094;-47
2022/07/14 06:02:17;;;;;;;3.22;1.70;;;;;;;28.22;99.77;96629.22;5089592;28;20072;-45
2022/07/14 06:04:45;;;;;;;3.20;1.40;;;;;;;28.52;98.13;96617.91;5086845;28;20079;-49
2022/07/14 06:07:14;;;;;;;4.43;1.80;;;;;;;27.59;100.00;96623.16;5087591;28;20450;-43
2022/07/14 06:09:44;;;;;;;2.78;1.60;;;;;;;28.04;100.00;96616.75;5088391;28;20087;-48
2022/07/14 06:12:12;;;;;;;5.00;1.80;;;;;;;27.93;92.66;96623.94;5088907;28;20082;-50
2022/07/14 06:14:42;;;;;;;4.95;1.75;;;;;;;27.68;100.00;96620.88;5088830;28;20071;-51
2022/07/14 06:17:11;;;;;;;3.75;1.40;;;;;;;27.74;99.21;96619.06;5093958;28;20075;-44
2022/07/14 06:19:39;;;;;;;3.05;1.75;;;;;;;27.13;100.00;96624.38;5089544;28;20562;-49
2022/07/14 06:22:08;;;;;;;2.92;1.52;;;;;;;27.82;100.00;96618.66;5082928;28;20079;-52
2022/07/14 06:24:38;;;;;;;3.10;1.50;;;;;;;27.96;100.00;96619.09;5089223;28;20083;-47
2022/07/14 06:27:15;;;;;;;5.32;1.30;;;;;;;27.71;88.14;96617.66;5089633;28;20134;-47
2022/07/14 06:29:43;;;;;;;4.28;1.40;;;;;;;27.48;92.84;96615.97;5088753;28;20079;-51
2022/07/14 06:32:12;;;;;;;4.85;1.50;;;;;;;27.98;85.76;96616.94;5088580;28;20726;-46
2022/07/14 06:34:40;;;;;;;3.15;1.33;;;;;;;27.53;95.60;96620.63;5089137;28;20080;-53
2022/07/14 06:37:08;;;;;;;1.88;1.23;;;;;;;27.93;87.99;96606.88;5087729;28;20071;-49
2022/07/14 06:39:37;;;;;;;2.45;1.23;;;;;;;28.02;93.00;96613.50;5089027;28;20091;-44
2022/07/14 06:42:06;;;;;;;5.55;1.27;;;;;;;28.34;61.04;96604.66;5088057;28;20087;-46
2022/07/14 06:44:36;;;;;;;2.90;1.20;;;;;;;28.17;74.85;96607.44;5089146;28;20079;-44
2022/07/14 06:47:04;;;;;;;2.13;1.10;;;;;;;28.29;74.41;96605.44;5089063;28;20082;-47
2022/07/14 06:49:33;;;;;;;2.60;1.10;;;;;;;28.54;65.20;96602.19;5083939;28;20080;-48
2022/07/14 06:52:01;;;;;;;3.13;1.33;;;;;;;28.39;52.12;96610.19;5085213;28;20667;-46
2022/07/14 06:54:30;;;;;;;1.55;1.05;;;;;;;28.86;50.46;96606.84;5088515;28;20450;-46
2022/07/14 06:56:58;;;;;;;2.85;1.15;;;;;;;29.35;49.95;96601.28;5088663;28;20151;-49
2022/07/14 06:59:26;;;;;;;2.88;1.05;;;;;;;29.79;43.86;96607.31;5088110;28;20087;-46
2022/07/14 07:01:56;;;;;;;1.58;0.90;;;;;;;29.36;42.55;96600.22;5088641;28;20044;-44
2022/07/14 07:04:25;;;;;;;3.50;0.98;;;;;;;30.05;43.83;96604.72;5085149;28;20068;-50
2022/07/14 07:06:55;;;;;;;3.55;1.10;;;;;;;30.02;42.29;96594.38;5088019;28;20084;-47
2022/07/14 07:09:24;;;;;;;6.88;1.50;;;;;;;29.88;42.78;96594.03;5088808;28;20087;-51
2022/07/14 07:11:52;;;;;;;4.80;1.10;;;;;;;30.23;42.15;96590.69;5088512;28;20086;-55
2022/07/14 07:14:21;;;;;;;4.40;1.20;;;;;;;30.43;42.97;96583.69;5092196;28;20082;-50
2022/07/14 07:16:50;;;;;;;4.07;1.20;;;;;;;30.83;41.16;96580.22;5088824;28;20082;-50
2022/07/14 07:19:20;;;;;;;1.92;1.08;;;;;;;30.96;41.37;96582.41;5085711;28;20087;-53
2022/07/14 07:21:48;;;;;;;4.50;1.10;;;;;;;31.40;43.93;96573.69;5088239;28;20080;-49
2022/07/14 07:24:17;;;;;;;3.70;1.20;;;;;;;31.30;40.35;96567.41;5088391;28;20095;-52
2022/07/14 07:26:45;;;;;;;3.58;1.20;;;;;;;31.61;39.90;96568.22;5088585;28;20482;-53
2022/07/14 07:29:14;;;;;;;2.67;1.00;;;;;;;31.72;37.92;96563.53;5088116;28;20546;-49
2022/07/14 07:31:42;;;;;;;5.30;1.05;;;;;;;31.41;36.58;96561.69;5086197;28;20451;-48
2022/07/14 07:34:11;;;;;;;1.95;1.20;;;;;;;30.79;37.03;96570.97;5087590;28;20075;-47
2022/07/14 07:36:41;;;;;;;3.80;1.50;;;;;;;31.35;35.90;96556.53;5088835;28;20088;-53
2022/07/14 07:39:30;;;;;;;3.35;1.10;;;;;;;31.25;37.36;96556.50;5081930;28;20151;-49
2022/07/14 07:42:01;;;;;;;2.42;1.10;;;;;;;31.28;37.59;96561.41;5087671;28;20087;-48
2022/07/14 07:44:30;;;;;;;3.17;1.10;;;;;;;31.47;38.92;96557.06;5088178;28;20076;-44
2022/07/14 07:46:58;;;;;;;1.33;0.85;;;;;;;31.60;36.24;96552.94;5087566;28;20150;-48
2022/07/14 07:49:27;;;;;;;3.58;0.90;;;;;;;32.14;37.49;96561.22;5082281;28;20086;-47
2022/07/14 07:52:01;;;;;;;2.72;1.05;;;;;;;31.63;41.48;96557.84;5087902;28;20565;-49
2022/07/14 07:54:30;;;;;;;2.35;0.82;;;;;;;31.34;38.57;96561.16;5088111;28;20076;-49
2022/07/14 07:57:18;;;;;;;5.93;0.90;;;;;;;31.92;43.06;96549.88;5090339;28;20080;-47
2022/07/14 07:59:49;;;;;;;1.40;0.93;;;;;;;31.54;35.15;96543.13;5087046;28;20764;-54
2022/07/14 08:02:17;;;;;;;5.78;0.98;;;;;;;31.17;37.36;96545.06;5091067;28;20088;-52
2022/07/14 08:04:47;;;;;;;2.03;1.00;;;;;;;31.48;35.86;96544.25;5090077;28;20090;-44
2022/07/14 08:07:17;;;;;;;;;;;;;;;31.54;38.71;96541.22;5091571;28;20522;-46
2022/07/14 08:09:45;;;;;;;1.52;1.00;;;;;;;31.88;34.91;96549.59;5106209;28;19958;-47
2022/07/14 08:12:14;;;;;;;3.10;1.02;;;;;;;31.99;37.67;96541.38;5091619;28;20088;-53
2022/07/14 08:14:51;;;;;;;3.28;1.00;;;;;;;31.36;36.22;96529.00;5090577;28;20072;-47
2022/07/14 08:17:22;;;;;;;1.65;1.10;;;;;;;31.88;38.19;96525.06;5087998;28;20078;-54
2022/07/14 08:19:51;;;;;;;6.18;1.13;;;;;;;32.08;37.83;96526.88;5091425;28;20068;-49
2022/07/14 08:22:24;;;;;;;1.63;1.05;;;;;;;31.32;36.56;96522.47;5091500;28;20713;-47
2022/07/14 08:24:53;;;;;;;2.97;1.15;;;;;;;31.41;40.71;96526.25;5091768;28;20106;-51
2022/07/14 08:27:22;;;;;;;1.75;1.00;;;;;;;30.97;39.70;96523.28;5091529;28;20186;-44
2022/07/14 08:29:51;;;;;;;4.13;1.10;;;;;;;31.11;42.22;96513.50;5087140;28;20071;-53
2022/07/14 08:32:34;;;;;;;2.85;1.23;;;;;;;31.27;41.05;96510.72;5091052;28;20646;-49
2022/07/14 08:35:04;;;;;;;3.75;1.20;;;;;;;31.43;43.14;96509.66;5091522;28;20068;-47
2022/07/14 08:37:34;;;;;;;1.55;0.95;;;;;;;31.58;40.38;96511.50;5090856;28;20068;-46
2022/07/14 08:40:06;;;;;;;5.78;1.35;;;;;;;31.53;38.28;96506.06;5091175;28;20068;-47
2022/07/14 08:42:35;;;;;;;3.13;1.20;;;;;;;31.82;41.39;96506.22;5087001;28;20122;-46
2022/07/14 08:45:07;;;;;;;4.53;1.30;;;;;;;31.91;40.61;96513.59;5088500;28;20095;-49
2022/07/14 08:47:36;;;;;;;3.63;1.23;;;;;;;32.00;39.39;96505.63;5089541;28;20508;-51
2022/07/14 08:50:05;;;;;;;5.43;1.40;;;;;;;31.92;42.44;96506.22;5084450;28;20079;-51
2022/07/14 08:52:36;;;;;;;5.35;1.20;;;;;;;31.91;39.72;96505.41;5084978;28;20068;-53
2022/07/14 08:55:07;;;;;;;5.35;1.30;;;;;;;31.73;39.89;96502.44;5091177;28;20087;-44
2022/07/14 08:57:36;;;;;;;3.78;1.40;;;;;;;32.17;37.20;96499.81;5087356;28;20080;-45
2022/07/14 09:00:08;;;;;;;4.32;1.13;;;;;;;32.28;39.92;96493.22;5090822;28;20094;-50
2022/07/14 09:02:37;;;;;;;4.05;1.17;;;;;;;32.85;41.10;96490.88;5091089;28;20083;-49
2022/07/14 09:05:25;;;;;;;6.05;1.15;;;;;;;32.36;34.85;96500.78;5095903;28;20086;-49
2022/07/14 09:07:58;;;;;;;4.15;1.10;;;;;;;32.40;34.22;96487.38;5091120;28;20494;-49
2022/07/14 09:10:28;;;;;;;3.53;1.10;;;;;;;32.72;33.39;96481.41;5085738;28;20804;-46
2022/07/14 09:13:10;;;;;;;3.08;1.23;;;;;;;32.20;35.63;96482.06;5090165;28;20092;-44
2022/07/14 09:15:48;;;;;;;3.42;1.00;;;;;;;31.86;32.18;96480.84;5090640;28;20062;-46
2022/07/14 09:18:20;;;;;;;1.42;0.90;;;;;;;32.38;34.60;96478.66;5091036;28;20580;-44
2022/07/14 09:20:51;;;;;;;4.43;1.20;;;;;;;32.27;34.52;96472.44;5090515;28;20072;-44
2022/07/14 09:23:28;;;;;;;2.65;1.10;;;;;;;32.17;33.22;96471.69;5090906;28;20272;-44
2022/07/14 09:26:10;;;;;;;1.92;1.13;;;;;;;32.40;34.95;96462.81;5085177;28;20082;-46
2022/07/14 09:28:41;;;;;;;5.38;1.20;;;;;;;32.46;33.48;96467.19;5084076;28;20094;-48
2022/07/14 09:31:21;;;;;;;1.90;1.13;;;;;;;32.14;32.74;96471.19;5090231;28;20078;-46
2022/07/14 09:33:50;;;;;;;1.42;1.10;;;;;;;32.69;33.68;96456.59;5090506;28;20508;-44
2022/07/14 09:36:28;;;;;;;1.57;1.00;;;;;;;32.59;33.87;96463.00;5090392;28;20064;-44
2022/07/14 09:39:00;;;;;;;1.40;1.20;;;;;;;32.96;32.83;96461.59;5090455;28;20492;-44
2022/07/14 09:41:29;;;;;;;1.60;1.05;;;;;;;32.61;31.55;96458.03;5088544;28;20064;-51
2022/07/14 09:44:09;;;;;;;2.53;1.17;;;;;;;32.64;33.57;96453.94;5089563;28;20063;-46
2022/07/14 09:46:44;;;;;;;1.23;0.90;;;;;;;32.89;32.67;96453.69;5090193;28;20106;-47
2022/07/14 09:49:13;;;;;;;4.45;1.20;;;;;;;32.54;32.12;96436.53;5083754;28;20698;-52
2022/07/14 09:52:00;;;;;;;3.33;1.13;;;;;;;32.85;30.89;96441.72;5089635;28;20533;-46
2022/07/14 09:54:47;;;;;;;4.05;1.00;;;;;;;33.77;33.06;96438.00;5089272;28;20082;-44
2022/07/14 09:57:29;;;;;;;1.23;1.13;;;;;;;33.38;33.90;96435.44;5089213;28;20064;-51
2022/07/14 09:59:59;;;;;;;3.22;1.27;;;;;;;33.37;34.27;96429.16;5083715;28;20067;-56
2022/07/14 10:02:29;;;;;;;2.55;1.23;;;;;;;33.24;34.84;96429.84;5089085;28;20095;-50
2022/07/14 10:05:09;;;;;;;1.83;1.27;;;;;;;33.29;33.61;96422.44;5092606;28;20079;-50
2022/07/14 10:07:45;;;;;;;4.10;1.20;;;;;;;33.23;36.14;96418.13;5087672;28;20122;-46
2022/07/14 10:10:24;;;;;;;3.90;1.10;;;;;;;33.35;32.86;96419.66;5089081;28;20752;-47
2022/07/14 10:12:53;;;;;;;2.75;1.10;;;;;;;33.37;34.31;96414.69;5089803;28;20110;-50
2022/07/14 10:15:23;;;;;;;3.22;1.20;;;;;;;33.29;34.83;96407.94;5089574;28;20468;-45
2022/07/14 10:17:52;;;;;;;2.63;1.40;;;;;;;33.01;31.84;96406.91;5083100;28;20102;-50
2022/07/14 10:20:21;;;;;;;3.03;1.20;;;;;;;33.74;33.22;96403.03;5080773;28;20106;-47
2022/07/14 10:22:58;;;;;;;5.50;1.42;;;;;;;34.02;34.40;96398.56;5089382;28;20083;-49
2022/07/14 10:25:29;;;;;;;4.28;1.30;;;;;;;33.95;30.79;96400.81;5082793;28;20482;-49
2022/07/14 10:27:57;;;;;;;3.22;1.10;;;;;;;34.21;32.31;96401.28;5084861;28;20075;-46
2022/07/14 10:30:37;;;;;;;1.63;1.00;;;;;;;34.47;31.83;96399.75;5088873;28;20471;-46
2022/07/14 10:33:08;;;;;;;2.75;1.00;;;;;;;33.77;32.53;96394.25;5089333;28;20083;-52
2022/07/14 10:35:50;;;;;;;2.95;1.10;;;;;;;33.66;31.69;96393.56;5088467;28;20479;-47
2022/07/14 10:38:31;;;;;;;1.95;0.93;;;;;;;33.26;31.59;96394.84;5088560;28;20086;-44
2022/07/14 10:41:08;;;;;;;2.53;1.10;;;;;;;33.53;31.55;96375.16;5083300;28;20559;-48
2022/07/14 10:43:51;;;;;;;2.58;1.20;;;;;;;33.87;35.15;96374.13;5089118;28;20078;-48
2022/07/14 10:46:34;;;;;;;1.58;1.10;;;;;;;33.50;33.13;96381.19;5088379;28;20459;-46
2022/07/14 10:49:03;;;;;;;1.98;0.90;;;;;;;33.40;32.10;96379.38;5087571;28;20091;-49
2022/07/14 10:51:32;;;;;;;1.55;1.00;;;;;;;33.13;29.21;96373.69;5088826;28;20094;-48
2022/07/14 10:54:11;;;;;;;2.13;0.90;;;;;;;33.69;30.78;96373.84;5089195;28;20091;-53
2022/07/14 10:57:12;;;;;;;1.80;1.00;;;;;;;33.65;31.44;96361.84;5086052;28;20072;-50
2022/07/14 10:59:42;;;;;;;1.10;0.80;;;;;;;33.50;31.31;96359.31;5098916;28;20099;-50
2022/07/14 11:02:31;;;;;;;0.85;0.70;;;;;;;33.21;27.72;96352.00;5088747;28;20564;-44
2022/07/14 11:05:02;;;;;;;2.83;1.10;;;;;;;33.42;29.91;96351.75;5084891;28;20079;-53
2022/07/14 11:07:35;;;;;;;1.95;0.82;;;;;;;33.67;30.81;96358.81;5088342;28;20094;-47
2022/07/14 11:10:05;;;;;;;2.40;0.95;;;;;;;33.48;28.94;96342.38;5088743;28;20044;-46
2022/07/14 11:12:34;;;;;;;1.15;0.68;;;;;;;33.64;29.28;96349.28;5088726;28;20659;-44
2022/07/14 11:15:03;;;;;;;2.00;0.90;;;;;;;33.60;28.35;96342.78;5088689;28;20087;-47
2022/07/14 11:17:39;;;;;;;1.38;0.90;;;;;;;33.99;29.97;96347.13;5084061;28;20067;-51
2022/07/14 11:20:12;;;;;;;2.15;0.90;;;;;;;34.45;30.62;96335.44;5089031;28;20083;-47
2022/07/14 11:22:42;;;;;;;1.85;1.00;;;;;;;33.99;29.10;96330.69;5088230;28;20072;-47
2022/07/14 11:25:26;;;;;;;1.00;0.90;;;;;;;33.92;30.34;96330.25;5088349;28;20585;-48
2022/07/14 11:27:56;;;;;;;1.38;0.93;;;;;;;34.07;28.16;96327.34;5088199;28;20083;-47
2022/07/14 11:30:31;;;;;;;1.15;0.77;;;;;;;34.22;29.30;96318.03;5088312;28;20087;-50
2022/07/14 11:33:08;;;;;;;4.55;1.10;;;;;;;34.00;29.16;96327.72;5088655;28;20090;-48
2022/07/14 11:39:21;;;;;;;3.72;1.00;;;;;;;34.39;29.71;96312.81;5092344;28;20082;-45
2022/07/14 11:41:53;;;;;;;1.20;1.00;;;;;;;34.26;30.10;96317.13;5092269;28;20076;-48
2022/07/14 11:44:48;;;;;;;1.38;1.10;;;;;;;34.09;30.06;96305.94;5092347;28;20095;-49
2022/07/14 11:47:19;;;;;;;2.95;0.90;;;;;;;34.04;30.80;96300.56;5091590;28;20549;-45
2022/07/14 11:49:53;;;;;;;2.08;0.90;;;;;;;34.58;29.53;96295.53;5092122;28;20079;-50
2022/07/14 11:52:26;;;;;;;1.70;1.08;;;;;;;34.67;30.13;96293.72;5090534;28;20609;-52
2022/07/14 11:54:55;;;;;;;1.50;1.10;;;;;;;34.82;31.80;96298.88;5094570;28;20083;-49